Audacia — 9HA4111 — position and weather

sailwx.info

Track history (hours):
 
Tides and Currents Weather Stations Pressure Air Temp Water Temp Dewpoint Dewpoint Depression Visibility Wind Speed Wind Dir Waves Ship Positions

Audacia

Last reported at 2018-Jun-23 00:39 UTC. Time now 2018-Jun-23 10:23 UTC.
Position N 32°57' E 033°42'.

Length 325 m; draft 14 m.

Type: Other ship. MMSI: 249117000.

Date/timePositionNaut miles runAvg speedWind from/ knotsBaromVisibWave heightAir tempDewpointWater temp
2018-Jun-23 00:39N 32°57' E 033°42'0 0.1
2018-Jun-22 18:50N 32°56' E 033°43'0 0.0
2018-Jun-22 18:30N 32°56' E 033°43'  
2018-Jun-19 17:10N 32°41' E 034°33'211.2
2018-Jun-19 17:00N 32°40' E 034°35'611.2
2018-Jun-19 16:30N 32°38' E 034°41'510.3
2018-Jun-19 16:01N 32°37' E 034°47'2 3.2
2018-Jun-19 15:31N 32°36' E 034°49'0 0.0
2018-Jun-19 15:00N 32°36' E 034°49'0 0.0
2018-Jun-19 14:30N 32°36' E 034°49'0 0.0
2018-Jun-19 14:01N 32°36' E 034°49'0 0.0
2018-Jun-19 13:31N 32°36' E 034°49'0 0.0
2018-Jun-19 12:56N 32°36' E 034°49'0 0.0
2018-Jun-19 12:31N 32°36' E 034°49'0 0.0
2018-Jun-19 12:01N 32°36' E 034°49'0 0.0
2018-Jun-19 11:31N 32°36' E 034°49'0 0.0
2018-Jun-19 11:01N 32°36' E 034°49'0 0.0
2018-Jun-19 10:29N 32°36' E 034°49'0 0.0
2018-Jun-19 10:01N 32°36' E 034°49'0 0.0
2018-Jun-19 09:31N 32°36' E 034°49'0 0.0
2018-Jun-19 09:01N 32°36' E 034°49'0 0.0
2018-Jun-19 08:31N 32°36' E 034°49'0 0.0
2018-Jun-19 08:01N 32°36' E 034°49'0 0.0
2018-Jun-19 07:30N 32°36' E 034°49'0 0.0
2018-Jun-19 07:01N 32°36' E 034°49'0 0.0
2018-Jun-19 06:31N 32°36' E 034°49'0 0.0
2018-Jun-19 06:01N 32°36' E 034°49'0 0.0
2018-Jun-19 05:31N 32°36' E 034°49'0 0.0
2018-Jun-19 05:01N 32°36' E 034°49'0 0.0
2018-Jun-19 04:31N 32°36' E 034°49'0 0.0
2018-Jun-19 04:01N 32°36' E 034°49'0 0.0
2018-Jun-19 03:31N 32°36' E 034°49'0 0.0
2018-Jun-19 03:00N 32°36' E 034°49'0 0.0
2018-Jun-19 02:31N 32°36' E 034°49'0 0.0
2018-Jun-19 02:01N 32°36' E 034°49'0 0.0
2018-Jun-19 01:31N 32°36' E 034°49'0 0.0
2018-Jun-19 01:01N 32°36' E 034°49'0 0.0
2018-Jun-19 00:31N 32°36' E 034°49'0 0.0
2018-Jun-19 00:01N 32°36' E 034°49'0 0.0
2018-Jun-18 23:31N 32°36' E 034°49'0 0.0
2018-Jun-18 23:01N 32°36' E 034°49'0 0.0
2018-Jun-18 22:31N 32°36' E 034°49'0 0.0
2018-Jun-18 22:01N 32°36' E 034°49'0 0.1
2018-Jun-18 21:31N 32°36' E 034°49'0 0.3
2018-Jun-18 21:01N 32°36' E 034°48'0 0.1
2018-Jun-18 20:31N 32°36' E 034°48'0 0.0
2018-Jun-18 20:01N 32°36' E 034°48'0 0.0
2018-Jun-18 19:30N 32°36' E 034°48'0 0.1
2018-Jun-18 19:00N 32°36' E 034°48'0 0.0
2018-Jun-18 18:30N 32°36' E 034°48'0 0.1
2018-Jun-18 18:01N 32°36' E 034°48'2 4.1
2018-Jun-18 17:31N 32°37' E 034°46'3 6.4
2018-Jun-18 17:01N 32°38' E 034°43'710.6
2018-Jun-18 16:20N 32°41' E 034°35'48 1.1
2018-Jun-16 19:34N 32°57' E 033°41'0 0.0
2018-Jun-16 19:27N 32°57' E 033°41'0 0.1
2018-Jun-16 19:00N 32°57' E 033°41'0 0.1
2018-Jun-16 18:30N 32°57' E 033°41'0 0.1
2018-Jun-16 18:00N 32°57' E 033°41'0 0.1
2018-Jun-16 17:30N 32°57' E 033°41'0 0.1
2018-Jun-16 17:00N 32°57' E 033°41'0 0.1
2018-Jun-16 16:30N 32°57' E 033°41'0 0.1
2018-Jun-16 16:00N 32°57' E 033°41'0 0.1
2018-Jun-16 15:30N 32°57' E 033°41'0 0.1
2018-Jun-16 15:00N 32°57' E 033°41'0 0.1
2018-Jun-16 14:23N 32°57' E 033°41'0 0.0
2018-Jun-16 13:13N 32°57' E 033°41'0 0.1
2018-Jun-16 13:00N 32°57' E 033°41'0 0.1
2018-Jun-16 12:30N 32°57' E 033°41'0 0.1
2018-Jun-16 12:00N 32°57' E 033°41'0 0.1
2018-Jun-16 11:30N 32°57' E 033°41'0 0.1
2018-Jun-16 11:00N 32°57' E 033°41'0 0.1
2018-Jun-16 10:30N 32°57' E 033°41'0 0.1
2018-Jun-16 10:00N 32°57' E 033°41'0 0.1
2018-Jun-16 09:30N 32°57' E 033°41'0 0.2
2018-Jun-16 09:00N 32°57' E 033°41'0 0.1
2018-Jun-16 07:31N 32°57' E 033°41'0 0.0
2018-Jun-16 07:30N 32°57' E 033°41'0 0.1
2018-Jun-16 07:00N 32°57' E 033°41'0 0.1
2018-Jun-16 06:30N 32°57' E 033°41'0 0.1
2018-Jun-16 05:58N 32°57' E 033°41'0 0.1
2018-Jun-16 05:30N 32°57' E 033°41'0 0.0
2018-Jun-16 05:00N 32°57' E 033°41'0 0.1
2018-Jun-16 04:31N 32°57' E 033°41'0 0.1
2018-Jun-16 04:01N 32°57' E 033°41'0 0.1
2018-Jun-16 03:31N 32°57' E 033°41'0 0.1
2018-Jun-16 03:01N 32°57' E 033°42'0 0.1
2018-Jun-16 02:31N 32°57' E 033°42'0 0.1
2018-Jun-16 02:00N 32°57' E 033°42'0 0.0
2018-Jun-16 01:31N 32°57' E 033°42'0 0.0
2018-Jun-16 01:00N 32°57' E 033°42'0 0.1
2018-Jun-16 00:31N 32°57' E 033°42'0 0.1
2018-Jun-16 00:01N 32°57' E 033°42'0 0.1
2018-Jun-15 23:31N 32°57' E 033°42'0 0.1
2018-Jun-15 23:00N 32°57' E 033°42'0 0.1
2018-Jun-15 22:30N 32°57' E 033°42'0 0.1
2018-Jun-15 22:00N 32°57' E 033°42'0 0.1
2018-Jun-15 21:31N 32°57' E 033°42'0 0.0
2018-Jun-15 21:00N 32°57' E 033°42'0 0.1
2018-Jun-15 20:29N 32°57' E 033°42'0 0.1
2018-Jun-15 20:00N 32°57' E 033°42'0 0.0
2018-Jun-15 19:30N 32°57' E 033°42'0 0.0
2018-Jun-15 19:01N 32°57' E 033°42'0 0.1
2018-Jun-15 18:31N 32°57' E 033°42'0 0.1
2018-Jun-15 18:01N 32°57' E 033°42'0 0.1
2018-Jun-15 17:30N 32°57' E 033°42'0 0.1
2018-Jun-15 17:00N 32°57' E 033°42'0 0.1
2018-Jun-15 16:30N 32°57' E 033°42'0 0.1
2018-Jun-15 16:01N 32°57' E 033°42'0 0.1
2018-Jun-15 15:30N 32°57' E 033°42'0 0.1
2018-Jun-15 15:01N 32°57' E 033°42'0 0.0
2018-Jun-15 14:31N 32°57' E 033°42'0 0.1
2018-Jun-15 14:01N 32°57' E 033°42'0 0.1
2018-Jun-15 13:30N 32°57' E 033°43'0 0.1
2018-Jun-15 12:58N 32°57' E 033°43'0 0.1
2018-Jun-15 12:16N 32°57' E 033°43'0 0.1
2018-Jun-15 11:27N 32°57' E 033°43'0 0.0
2018-Jun-15 09:07N 32°57' E 033°43'1 0.1
2018-Jun-15 00:45N 32°57' E 033°43'0 0.1
2018-Jun-15 00:29N 32°57' E 033°43'0 0.1
2018-Jun-15 00:01N 32°57' E 033°44'0 0.0
2018-Jun-14 23:30N 32°57' E 033°44'0 0.0
2018-Jun-14 23:00N 32°57' E 033°44'0 0.0
2018-Jun-14 22:30N 32°57' E 033°44'0 0.0
2018-Jun-14 21:50N 32°57' E 033°44'0 0.0
2018-Jun-14 21:30N 32°57' E 033°44'0 0.0
2018-Jun-14 21:00N 32°57' E 033°44'0 0.0
2018-Jun-14 20:31N 32°57' E 033°44'0 0.0
2018-Jun-14 20:00N 32°57' E 033°44'0 0.0
2018-Jun-14 19:30N 32°57' E 033°44'0 0.0
2018-Jun-14 19:00N 32°57' E 033°44'0 0.0
2018-Jun-14 18:29N 32°57' E 033°44'0 0.0
2018-Jun-14 17:41N 32°57' E 033°44'0 0.0
2018-Jun-14 17:31N 32°57' E 033°44'0 0.0
2018-Jun-14 17:00N 32°57' E 033°44'0 0.0
2018-Jun-14 16:31N 32°57' E 033°44'0 0.0
2018-Jun-14 16:00N 32°57' E 033°44'0 0.0
2018-Jun-14 15:30N 32°57' E 033°44'0 0.0
2018-Jun-14 15:00N 32°57' E 033°44'0 0.1
2018-Jun-14 14:25N 32°57' E 033°44'0 0.0
2018-Jun-14 13:53N 32°57' E 033°44'0 0.1
2018-Jun-14 13:28N 32°57' E 033°44'0 0.1
2018-Jun-14 13:00N 32°57' E 033°44'0 0.1
2018-Jun-14 12:30N 32°57' E 033°44'0 0.1
2018-Jun-14 12:00N 32°57' E 033°44'0 0.1
2018-Jun-14 11:14N 32°57' E 033°44'0 0.1
2018-Jun-14 10:48N 32°57' E 033°44'1 0.1
2018-Jun-13 20:06N 32°57' E 033°45'0 0.1
2018-Jun-13 20:01N 32°57' E 033°45'0 0.1
2018-Jun-13 18:45N 32°57' E 033°45'  
Track history (hours):
 
Tides and Currents Weather Stations Pressure Air Temp Water Temp Dewpoint Dewpoint Depression Visibility Wind Speed Wind Dir Waves Ship Positions

Audacia

Last reported at 2018-Jun-23 00:39 UTC. Time now 2018-Jun-23 10:23 UTC.
Position N 32°57' E 033°42'.

Length 325 m; draft 14 m.

Type: Other ship. MMSI: 249117000.

Date/timePositionNaut miles runAvg speedWind from/ knotsBaromVisibWave heightAir tempDewpointWater temp
2018-Jun-23 00:39N 32°57' E 033°42'0 0.1
2018-Jun-22 18:50N 32°56' E 033°43'0 0.0
2018-Jun-22 18:30N 32°56' E 033°43'  
2018-Jun-19 17:10N 32°41' E 034°33'211.2
2018-Jun-19 17:00N 32°40' E 034°35'611.2
2018-Jun-19 16:30N 32°38' E 034°41'510.3
2018-Jun-19 16:01N 32°37' E 034°47'2 3.2
2018-Jun-19 15:31N 32°36' E 034°49'0 0.0
2018-Jun-19 15:00N 32°36' E 034°49'0 0.0
2018-Jun-19 14:30N 32°36' E 034°49'0 0.0
2018-Jun-19 14:01N 32°36' E 034°49'0 0.0
2018-Jun-19 13:31N 32°36' E 034°49'0 0.0
2018-Jun-19 12:56N 32°36' E 034°49'0 0.0
2018-Jun-19 12:31N 32°36' E 034°49'0 0.0
2018-Jun-19 12:01N 32°36' E 034°49'0 0.0
2018-Jun-19 11:31N 32°36' E 034°49'0 0.0
2018-Jun-19 11:01N 32°36' E 034°49'0 0.0
2018-Jun-19 10:29N 32°36' E 034°49'0 0.0
2018-Jun-19 10:01N 32°36' E 034°49'0 0.0
2018-Jun-19 09:31N 32°36' E 034°49'0 0.0
2018-Jun-19 09:01N 32°36' E 034°49'0 0.0
2018-Jun-19 08:31N 32°36' E 034°49'0 0.0
2018-Jun-19 08:01N 32°36' E 034°49'0 0.0
2018-Jun-19 07:30N 32°36' E 034°49'0 0.0
2018-Jun-19 07:01N 32°36' E 034°49'0 0.0
2018-Jun-19 06:31N 32°36' E 034°49'0 0.0
2018-Jun-19 06:01N 32°36' E 034°49'0 0.0
2018-Jun-19 05:31N 32°36' E 034°49'0 0.0
2018-Jun-19 05:01N 32°36' E 034°49'0 0.0
2018-Jun-19 04:31N 32°36' E 034°49'0 0.0
2018-Jun-19 04:01N 32°36' E 034°49'0 0.0
2018-Jun-19 03:31N 32°36' E 034°49'0 0.0
2018-Jun-19 03:00N 32°36' E 034°49'0 0.0
2018-Jun-19 02:31N 32°36' E 034°49'0 0.0
2018-Jun-19 02:01N 32°36' E 034°49'0 0.0
2018-Jun-19 01:31N 32°36' E 034°49'0 0.0
2018-Jun-19 01:01N 32°36' E 034°49'0 0.0
2018-Jun-19 00:31N 32°36' E 034°49'0 0.0
2018-Jun-19 00:01N 32°36' E 034°49'0 0.0
2018-Jun-18 23:31N 32°36' E 034°49'0 0.0
2018-Jun-18 23:01N 32°36' E 034°49'0 0.0
2018-Jun-18 22:31N 32°36' E 034°49'0 0.0
2018-Jun-18 22:01N 32°36' E 034°49'0 0.1
2018-Jun-18 21:31N 32°36' E 034°49'0 0.3
2018-Jun-18 21:01N 32°36' E 034°48'0 0.1
2018-Jun-18 20:31N 32°36' E 034°48'0 0.0
2018-Jun-18 20:01N 32°36' E 034°48'0 0.0
2018-Jun-18 19:30N 32°36' E 034°48'0 0.1
2018-Jun-18 19:00N 32°36' E 034°48'0 0.0
2018-Jun-18 18:30N 32°36' E 034°48'0 0.1
2018-Jun-18 18:01N 32°36' E 034°48'2 4.1
2018-Jun-18 17:31N 32°37' E 034°46'3 6.4
2018-Jun-18 17:01N 32°38' E 034°43'710.6
2018-Jun-18 16:20N 32°41' E 034°35'48 1.1
2018-Jun-16 19:34N 32°57' E 033°41'0 0.0
2018-Jun-16 19:27N 32°57' E 033°41'0 0.1
2018-Jun-16 19:00N 32°57' E 033°41'0 0.1
2018-Jun-16 18:30N 32°57' E 033°41'0 0.1
2018-Jun-16 18:00N 32°57' E 033°41'0 0.1
2018-Jun-16 17:30N 32°57' E 033°41'0 0.1
2018-Jun-16 17:00N 32°57' E 033°41'0 0.1
2018-Jun-16 16:30N 32°57' E 033°41'0 0.1
2018-Jun-16 16:00N 32°57' E 033°41'0 0.1
2018-Jun-16 15:30N 32°57' E 033°41'0 0.1
2018-Jun-16 15:00N 32°57' E 033°41'0 0.1
2018-Jun-16 14:23N 32°57' E 033°41'0 0.0
2018-Jun-16 13:13N 32°57' E 033°41'0 0.1
2018-Jun-16 13:00N 32°57' E 033°41'0 0.1
2018-Jun-16 12:30N 32°57' E 033°41'0 0.1
2018-Jun-16 12:00N 32°57' E 033°41'0 0.1
2018-Jun-16 11:30N 32°57' E 033°41'0 0.1
2018-Jun-16 11:00N 32°57' E 033°41'0 0.1
2018-Jun-16 10:30N 32°57' E 033°41'0 0.1
2018-Jun-16 10:00N 32°57' E 033°41'0 0.1
2018-Jun-16 09:30N 32°57' E 033°41'0 0.2
2018-Jun-16 09:00N 32°57' E 033°41'0 0.1
2018-Jun-16 07:31N 32°57' E 033°41'0 0.0
2018-Jun-16 07:30N 32°57' E 033°41'0 0.1
2018-Jun-16 07:00N 32°57' E 033°41'0 0.1
2018-Jun-16 06:30N 32°57' E 033°41'0 0.1
2018-Jun-16 05:58N 32°57' E 033°41'0 0.1
2018-Jun-16 05:30N 32°57' E 033°41'0 0.0
2018-Jun-16 05:00N 32°57' E 033°41'0 0.1
2018-Jun-16 04:31N 32°57' E 033°41'0 0.1
2018-Jun-16 04:01N 32°57' E 033°41'0 0.1
2018-Jun-16 03:31N 32°57' E 033°41'0 0.1
2018-Jun-16 03:01N 32°57' E 033°42'0 0.1
2018-Jun-16 02:31N 32°57' E 033°42'0 0.1
2018-Jun-16 02:00N 32°57' E 033°42'0 0.0
2018-Jun-16 01:31N 32°57' E 033°42'0 0.0
2018-Jun-16 01:00N 32°57' E 033°42'0 0.1
2018-Jun-16 00:31N 32°57' E 033°42'0 0.1
2018-Jun-16 00:01N 32°57' E 033°42'0 0.1
2018-Jun-15 23:31N 32°57' E 033°42'0 0.1
2018-Jun-15 23:00N 32°57' E 033°42'0 0.1
2018-Jun-15 22:30N 32°57' E 033°42'0 0.1
2018-Jun-15 22:00N 32°57' E 033°42'0 0.1
2018-Jun-15 21:31N 32°57' E 033°42'0 0.0
2018-Jun-15 21:00N 32°57' E 033°42'0 0.1
2018-Jun-15 20:29N 32°57' E 033°42'0 0.1
2018-Jun-15 20:00N 32°57' E 033°42'0 0.0
2018-Jun-15 19:30N 32°57' E 033°42'0 0.0
2018-Jun-15 19:01N 32°57' E 033°42'0 0.1
2018-Jun-15 18:31N 32°57' E 033°42'0 0.1
2018-Jun-15 18:01N 32°57' E 033°42'0 0.1
2018-Jun-15 17:30N 32°57' E 033°42'0 0.1
2018-Jun-15 17:00N 32°57' E 033°42'0 0.1
2018-Jun-15 16:30N 32°57' E 033°42'0 0.1
2018-Jun-15 16:01N 32°57' E 033°42'0 0.1
2018-Jun-15 15:30N 32°57' E 033°42'0 0.1
2018-Jun-15 15:01N 32°57' E 033°42'0 0.0
2018-Jun-15 14:31N 32°57' E 033°42'0 0.1
2018-Jun-15 14:01N 32°57' E 033°42'0 0.1
2018-Jun-15 13:30N 32°57' E 033°43'0 0.1
2018-Jun-15 12:58N 32°57' E 033°43'0 0.1
2018-Jun-15 12:16N 32°57' E 033°43'0 0.1
2018-Jun-15 11:27N 32°57' E 033°43'0 0.0
2018-Jun-15 09:07N 32°57' E 033°43'1 0.1
2018-Jun-15 00:45N 32°57' E 033°43'0 0.1
2018-Jun-15 00:29N 32°57' E 033°43'0 0.1
2018-Jun-15 00:01N 32°57' E 033°44'0 0.0
2018-Jun-14 23:30N 32°57' E 033°44'0 0.0
2018-Jun-14 23:00N 32°57' E 033°44'0 0.0
2018-Jun-14 22:30N 32°57' E 033°44'0 0.0
2018-Jun-14 21:50N 32°57' E 033°44'0 0.0
2018-Jun-14 21:30N 32°57' E 033°44'0 0.0
2018-Jun-14 21:00N 32°57' E 033°44'0 0.0
2018-Jun-14 20:31N 32°57' E 033°44'0 0.0
2018-Jun-14 20:00N 32°57' E 033°44'0 0.0
2018-Jun-14 19:30N 32°57' E 033°44'0 0.0
2018-Jun-14 19:00N 32°57' E 033°44'0 0.0
2018-Jun-14 18:29N 32°57' E 033°44'0 0.0
2018-Jun-14 17:41N 32°57' E 033°44'0 0.0
2018-Jun-14 17:31N 32°57' E 033°44'0 0.0
2018-Jun-14 17:00N 32°57' E 033°44'0 0.0
2018-Jun-14 16:31N 32°57' E 033°44'0 0.0
2018-Jun-14 16:00N 32°57' E 033°44'0 0.0
2018-Jun-14 15:30N 32°57' E 033°44'0 0.0
2018-Jun-14 15:00N 32°57' E 033°44'0 0.1
2018-Jun-14 14:25N 32°57' E 033°44'0 0.0
2018-Jun-14 13:53N 32°57' E 033°44'0 0.1
2018-Jun-14 13:28N 32°57' E 033°44'0 0.1
2018-Jun-14 13:00N 32°57' E 033°44'0 0.1
2018-Jun-14 12:30N 32°57' E 033°44'0 0.1
2018-Jun-14 12:00N 32°57' E 033°44'0 0.1
2018-Jun-14 11:14N 32°57' E 033°44'0 0.1
2018-Jun-14 10:48N 32°57' E 033°44'1 0.1
2018-Jun-13 20:06N 32°57' E 033°45'0 0.1
2018-Jun-13 20:01N 32°57' E 033°45'0 0.1
2018-Jun-13 18:45N 32°57' E 033°45'  

Dump ship's entire track history